createdAt,value
2018-01-01T07:00:33.351Z,6.00
2018-01-01T07:03:00.911Z,6.00
2018-01-01T07:05:28.435Z,6.00
2018-01-01T07:07:56.739Z,6.00
2018-01-01T07:10:24.264Z,6.00
2018-01-01T07:12:52.571Z,6.00
2018-01-01T07:15:20.116Z,6.00
2018-01-01T07:17:47.674Z,6.00
2018-01-01T07:20:15.192Z,6.00
2018-01-01T07:22:42.725Z,6.00
2018-01-01T07:25:10.252Z,6.00
2018-01-01T07:27:37.776Z,6.00
2018-01-01T07:30:05.320Z,6.00
2018-01-01T07:32:32.868Z,6.00
2018-01-01T07:35:00.412Z,6.00
2018-01-01T07:37:27.958Z,6.00
2018-01-01T07:39:55.492Z,6.00
2018-01-01T07:42:23.800Z,6.00
2018-01-01T07:44:51.322Z,6.00
2018-01-01T07:47:19.624Z,6.00
2018-01-01T07:49:47.168Z,6.00
2018-01-01T07:52:15.457Z,6.10
2018-01-01T07:54:42.979Z,6.10
2018-01-01T07:57:10.531Z,6.10
2018-01-01T07:59:38.065Z,6.10
2018-01-01T08:02:05.583Z,6.10
2018-01-01T08:04:33.990Z,6.00
2018-01-01T08:07:01.515Z,6.00
2018-01-01T08:09:29.853Z,6.00
2018-01-01T08:11:57.382Z,6.00
2018-01-01T08:14:24.923Z,6.00
2018-01-01T08:16:52.452Z,6.00
2018-01-01T08:19:19.982Z,5.90
2018-01-01T08:21:47.528Z,5.90
2018-01-01T08:24:15.052Z,5.90
2018-01-01T08:26:43.355Z,5.90
2018-01-01T08:29:10.919Z,5.90
2018-01-01T08:31:38.443Z,5.90
2018-01-01T08:34:07.735Z,5.90
2018-01-01T08:36:36.050Z,5.90
2018-01-01T08:39:03.576Z,5.90
2018-01-01T08:41:31.872Z,6.00
2018-01-01T08:43:59.414Z,6.00
2018-01-01T08:46:27.707Z,6.10
2018-01-01T08:48:55.247Z,6.10
2018-01-01T08:51:22.803Z,6.10
2018-01-01T08:53:50.382Z,6.20
2018-01-01T08:56:17.907Z,6.20
2018-01-01T08:58:45.432Z,6.30
2018-01-01T09:01:13.739Z,6.40
2018-01-01T09:03:41.267Z,6.30
2018-01-01T09:06:08.788Z,6.40
2018-01-01T09:08:37.198Z,6.40
2018-01-01T09:11:04.724Z,6.40
2018-01-01T09:13:33.028Z,6.40
2018-01-01T09:16:00.563Z,6.40
2018-01-01T09:18:29.808Z,6.50
2018-01-01T09:20:57.355Z,6.50
2018-01-01T09:23:24.883Z,6.50
2018-01-01T09:25:53.177Z,6.60
2018-01-01T09:28:20.756Z,6.60
2018-01-01T09:30:48.300Z,6.60
2018-01-01T09:33:15.830Z,6.60
2018-01-01T09:35:44.140Z,6.50
2018-01-01T09:38:13.611Z,6.50
2018-01-01T09:40:41.906Z,6.60
2018-01-01T09:43:09.450Z,6.60
2018-01-01T09:45:37.730Z,6.60
2018-01-01T09:48:06.032Z,6.70
2018-01-01T09:50:33.562Z,6.60
2018-01-01T09:53:01.087Z,6.70
2018-01-01T09:55:28.607Z,6.80
2018-01-01T09:57:56.167Z,6.80
2018-01-01T10:00:23.704Z,6.80
2018-01-01T10:02:51.264Z,6.90
2018-01-01T10:05:19.638Z,7.00
2018-01-01T10:07:48.004Z,7.10
2018-01-01T10:10:17.023Z,7.20
2018-01-01T10:12:44.595Z,7.20
2018-01-01T10:15:12.243Z,7.20
2018-01-01T10:17:39.831Z,7.30
2018-01-01T10:20:07.359Z,7.30
2018-01-01T10:22:34.911Z,7.40
2018-01-01T10:25:03.206Z,7.40
2018-01-01T10:27:30.749Z,7.40
2018-01-01T10:29:59.095Z,7.50
2018-01-01T10:32:26.723Z,7.40
2018-01-01T10:34:54.244Z,7.50
2018-01-01T10:37:22.548Z,7.50
2018-01-01T10:39:50.088Z,7.50
2018-01-01T10:42:17.635Z,7.60
2018-01-01T10:44:45.921Z,7.60
2018-01-01T10:47:14.236Z,7.60
2018-01-01T10:49:41.763Z,7.60
2018-01-01T10:52:09.328Z,7.70
2018-01-01T10:54:36.924Z,7.70
2018-01-01T10:57:04.460Z,7.70
2018-01-01T10:59:31.988Z,7.70
2018-01-01T11:02:00.294Z,7.70
2018-01-01T11:04:27.840Z,7.70
2018-01-01T11:06:55.371Z,7.70
2018-01-01T11:09:23.692Z,7.60
2018-01-01T11:11:51.235Z,7.60
2018-01-01T11:14:18.791Z,7.70
2018-01-01T11:16:46.341Z,7.60
2018-01-01T11:19:18.610Z,7.70
2018-01-01T11:21:46.936Z,7.80
2018-01-01T11:24:14.459Z,7.70
2018-01-01T11:26:48.193Z,7.80
2018-01-01T11:29:15.723Z,7.80
2018-01-01T11:31:43.271Z,7.90
2018-01-01T11:34:11.574Z,7.90
2018-01-01T11:36:39.116Z,7.90
2018-01-01T11:39:07.587Z,8.00
2018-01-01T11:41:42.343Z,8.00
2018-01-01T11:44:15.828Z,8.00
2018-01-01T11:46:46.759Z,8.10
2018-01-01T11:49:14.348Z,8.10
2018-01-01T11:51:42.806Z,8.10
2018-01-01T11:54:10.355Z,8.10
2018-01-01T11:56:38.793Z,8.10
2018-01-01T11:59:06.352Z,8.10
2018-01-01T12:01:34.145Z,8.10
2018-01-01T12:04:02.470Z,8.10
2018-01-01T12:06:31.444Z,8.10
2018-01-01T12:08:59.009Z,8.10
2018-01-01T12:11:26.543Z,8.10
2018-01-01T12:13:54.894Z,8.00
2018-01-01T12:16:22.488Z,8.00
2018-01-01T12:18:50.115Z,8.00
2018-01-01T12:21:17.758Z,8.00
2018-01-01T12:23:45.308Z,8.10
2018-01-01T12:26:13.981Z,8.10
2018-01-01T12:28:44.601Z,8.10
2018-01-01T12:31:12.217Z,8.10
2018-01-01T12:33:39.756Z,8.00
2018-01-01T12:36:07.325Z,8.10
2018-01-01T12:38:34.860Z,8.10
2018-01-01T12:41:02.435Z,8.20
2018-01-01T12:43:29.979Z,8.20
2018-01-01T12:45:57.508Z,8.20
2018-01-01T12:48:25.246Z,8.20
2018-01-01T12:50:52.944Z,8.20
2018-01-01T12:53:20.645Z,8.20
2018-01-01T12:55:48.284Z,8.20
2018-01-01T12:58:15.863Z,8.30
2018-01-01T13:00:43.437Z,8.30
2018-01-01T13:03:11.032Z,8.40
2018-01-01T13:05:39.374Z,8.40
2018-01-01T13:08:06.923Z,8.30
2018-01-01T13:10:35.074Z,8.40
2018-01-01T13:13:02.608Z,8.40
2018-01-01T13:15:30.197Z,8.30
2018-01-01T13:17:58.784Z,8.30
2018-01-01T13:20:26.362Z,8.30
2018-01-01T13:22:54.936Z,8.20
2018-01-01T13:25:22.503Z,8.20
2018-01-01T13:27:50.040Z,8.30
2018-01-01T13:30:17.576Z,8.30
2018-01-01T13:32:45.144Z,8.20
2018-01-01T13:35:12.699Z,8.30
2018-01-01T13:37:40.266Z,8.20
2018-01-01T13:40:07.860Z,8.30
2018-01-01T13:42:35.439Z,8.20
2018-01-01T13:45:03.019Z,8.20
2018-01-01T13:47:31.329Z,8.20
2018-01-01T13:49:58.927Z,8.20
2018-01-01T13:52:26.530Z,8.20
2018-01-01T13:54:54.859Z,8.10
2018-01-01T13:57:22.404Z,8.10
2018-01-01T13:59:50.008Z,8.10
2018-01-01T14:02:17.596Z,8.00
2018-01-01T14:04:45.202Z,8.00
2018-01-01T14:07:12.776Z,8.00
2018-01-01T14:09:40.342Z,8.00
2018-01-01T14:12:07.935Z,8.00
2018-01-01T14:14:37.328Z,8.00
2018-01-01T14:17:04.924Z,8.10
2018-01-01T14:19:32.505Z,8.10
2018-01-01T14:22:00.083Z,8.10
2018-01-01T14:24:27.646Z,8.10
2018-01-01T14:26:55.924Z,8.00
2018-01-01T14:29:23.510Z,8.00
2018-01-01T14:31:51.808Z,8.10
2018-01-01T14:34:19.351Z,8.00
2018-01-01T14:36:46.942Z,8.00
2018-01-01T14:39:14.534Z,8.00
2018-01-01T14:41:42.181Z,8.00
2018-01-01T14:44:09.758Z,7.90
2018-01-01T14:46:37.335Z,8.00
2018-01-01T14:49:05.713Z,7.90
2018-01-01T14:51:33.335Z,7.90
2018-01-01T14:54:00.933Z,7.90
2018-01-01T14:56:29.263Z,7.90
2018-01-01T14:58:56.867Z,7.90
2018-01-01T15:01:24.477Z,7.90
2018-01-01T15:03:52.096Z,7.90
2018-01-01T15:06:20.424Z,7.80
2018-01-01T15:08:47.997Z,7.80
2018-01-01T15:11:15.618Z,7.90
2018-01-01T15:13:43.214Z,7.80
2018-01-01T15:16:10.795Z,7.80
2018-01-01T15:18:38.403Z,7.80
2018-01-01T15:21:06.006Z,7.80
2018-01-01T15:23:33.621Z,7.80
2018-01-01T15:26:01.188Z,7.80
2018-01-01T15:28:28.789Z,7.80
2018-01-01T15:30:56.829Z,7.70
2018-01-01T15:33:24.455Z,7.70
2018-01-01T15:35:52.874Z,7.60
2018-01-01T15:38:20.451Z,7.60
2018-01-01T15:40:48.043Z,7.50
2018-01-01T15:43:16.414Z,7.50
2018-01-01T15:45:43.990Z,7.50
2018-01-01T15:48:11.574Z,7.50
2018-01-01T15:50:39.157Z,7.40
2018-01-01T15:53:06.729Z,7.50
2018-01-01T15:55:36.360Z,7.50
2018-01-01T15:58:03.908Z,7.40
2018-01-01T16:00:31.492Z,7.40
2018-01-01T16:02:59.860Z,7.30
2018-01-01T16:05:27.437Z,7.20
2018-01-01T16:07:55.044Z,7.20
2018-01-01T16:10:22.628Z,7.20
2018-01-01T16:12:50.219Z,7.10
2018-01-01T16:15:18.575Z,7.10
2018-01-01T16:17:46.163Z,7.10
2018-01-01T16:20:14.531Z,7.00
2018-01-01T16:22:42.890Z,7.00
2018-01-01T16:25:10.471Z,7.00
2018-01-01T16:27:38.877Z,7.00
2018-01-01T16:30:06.470Z,7.00
2018-01-01T16:32:34.082Z,7.00
2018-01-01T16:35:02.441Z,7.00
2018-01-01T16:37:30.799Z,7.00
2018-01-01T16:39:58.382Z,7.00
2018-01-01T16:42:25.973Z,7.00
2018-01-01T16:44:53.600Z,7.00
2018-01-01T16:47:21.251Z,7.00
2018-01-01T16:49:48.839Z,7.10
2018-01-01T16:52:16.442Z,7.20
2018-01-01T16:54:46.016Z,7.20
2018-01-01T16:57:14.399Z,7.20
2018-01-01T16:59:42.190Z,7.20
2018-01-01T17:02:10.580Z,7.40
2018-01-01T17:04:38.174Z,7.30
2018-01-01T17:07:05.794Z,7.40
2018-01-01T17:09:33.345Z,7.40
2018-01-01T17:12:00.980Z,7.50
2018-01-01T17:14:28.597Z,7.50
2018-01-01T17:16:56.287Z,7.50
2018-01-01T17:19:24.666Z,7.60
2018-01-01T17:21:53.039Z,7.60
2018-01-01T17:24:21.398Z,7.60
2018-01-01T17:26:49.034Z,7.60
2018-01-01T17:29:16.618Z,7.60
2018-01-01T17:31:44.224Z,7.60
2018-01-01T17:34:12.570Z,7.60
2018-01-01T17:36:42.046Z,7.50
2018-01-01T17:39:11.775Z,7.50
2018-01-01T17:41:39.402Z,7.50
2018-01-01T17:44:06.981Z,7.50
2018-01-01T17:46:35.712Z,7.50
2018-01-01T17:49:04.052Z,7.50
2018-01-01T17:51:32.460Z,7.50
2018-01-01T17:54:00.188Z,7.50
2018-01-01T17:56:27.777Z,7.60
2018-01-01T17:58:55.376Z,7.50
2018-01-01T18:01:22.958Z,7.50
2018-01-01T18:03:50.539Z,7.60
2018-01-01T18:06:18.138Z,7.70
2018-01-01T18:08:46.483Z,7.90
2018-01-01T18:11:26.886Z,7.90
2018-01-01T18:14:08.601Z,7.80
2018-01-01T18:16:52.322Z,7.70
2018-01-01T18:19:34.408Z,7.50
2018-01-01T18:22:18.328Z,7.40
2018-01-01T18:24:58.416Z,7.40
2018-01-01T18:27:26.002Z,7.40
2018-01-01T18:29:53.591Z,7.30
2018-01-01T18:32:21.183Z,7.30
2018-01-01T18:34:53.948Z,7.20
2018-01-01T18:37:25.905Z,7.10
2018-01-01T18:40:08.995Z,7.10
2018-01-01T18:42:51.344Z,7.00
2018-01-01T18:45:33.646Z,6.90
2018-01-01T18:48:16.830Z,6.80
2018-01-01T18:50:57.777Z,6.70
2018-01-01T18:53:38.523Z,6.70
2018-01-01T18:56:17.594Z,6.60
2018-01-01T18:58:45.204Z,6.60
2018-01-01T19:01:12.848Z,6.60
2018-01-01T19:03:54.686Z,6.60
2018-01-01T19:06:22.276Z,6.60
2018-01-01T19:09:04.024Z,6.60
2018-01-01T19:11:40.410Z,6.70
2018-01-01T19:14:24.383Z,6.60
2018-01-01T19:16:51.973Z,6.60
2018-01-01T19:19:34.597Z,6.60
2018-01-01T19:22:17.341Z,6.60
2018-01-01T19:25:00.068Z,6.70
2018-01-01T19:27:38.536Z,6.60
2018-01-01T19:30:17.849Z,6.60
2018-01-01T19:32:59.659Z,6.70
2018-01-01T19:35:39.487Z,6.60
2018-01-01T19:38:07.133Z,6.60
2018-01-01T19:40:34.723Z,6.60
2018-01-01T19:43:02.350Z,6.60
2018-01-01T19:45:29.980Z,6.60
2018-01-01T19:47:58.357Z,6.60
2018-01-01T19:50:26.752Z,6.50
2018-01-01T19:52:54.339Z,6.50
2018-01-01T19:55:21.911Z,6.50
2018-01-01T19:58:03.599Z,6.50
2018-01-01T20:00:42.949Z,6.50
2018-01-01T20:03:23.364Z,6.50
2018-01-01T20:06:04.912Z,6.50
2018-01-01T20:08:32.504Z,6.50
2018-01-01T20:11:00.859Z,6.40
2018-01-01T20:13:28.500Z,6.30
2018-01-01T20:15:56.087Z,6.40
2018-01-01T20:18:24.432Z,6.30
2018-01-01T20:20:52.044Z,6.30
2018-01-01T20:23:19.652Z,6.30
2018-01-01T20:25:47.247Z,6.30
2018-01-01T20:28:15.603Z,6.30
2018-01-01T20:30:43.190Z,6.20
2018-01-01T20:33:11.803Z,6.30
2018-01-01T20:35:39.398Z,6.30
2018-01-01T20:38:06.972Z,6.30
2018-01-01T20:40:34.679Z,6.30
2018-01-01T20:43:02.277Z,6.40
2018-01-01T20:45:29.851Z,6.40
2018-01-01T20:47:58.161Z,6.40
2018-01-01T20:50:25.756Z,6.40
2018-01-01T20:52:53.342Z,6.40
2018-01-01T20:55:20.982Z,6.40
2018-01-01T20:57:48.647Z,6.30
2018-01-01T21:00:16.247Z,6.30
2018-01-01T21:02:43.839Z,6.30
2018-01-01T21:05:11.446Z,6.20
2018-01-01T21:07:39.060Z,6.20
2018-01-01T21:10:06.653Z,6.20
2018-01-01T21:12:34.229Z,6.20
2018-01-01T21:15:01.839Z,6.20
2018-01-01T21:17:29.425Z,6.20
2018-01-01T21:19:57.003Z,6.20
2018-01-01T21:22:24.599Z,6.20
2018-01-01T21:24:52.952Z,6.10
2018-01-01T21:27:20.566Z,6.10
2018-01-01T21:29:48.146Z,6.10
2018-01-01T21:32:15.727Z,6.10
2018-01-01T21:34:44.107Z,6.10
2018-01-01T21:37:11.723Z,6.10
2018-01-01T21:39:39.319Z,6.10
2018-01-01T21:42:06.945Z,6.00
2018-01-01T21:44:34.531Z,6.00
2018-01-01T21:47:02.167Z,6.10
2018-01-01T21:49:29.773Z,6.00
2018-01-01T21:51:58.112Z,6.10
2018-01-01T21:54:25.690Z,6.00
2018-01-01T21:56:53.286Z,6.00
2018-01-01T21:59:27.907Z,6.00
2018-01-01T22:01:55.506Z,6.00
2018-01-01T22:04:23.106Z,6.00
2018-01-01T22:07:01.848Z,6.00
2018-01-01T22:09:32.308Z,6.00
2018-01-01T22:12:08.797Z,6.00
2018-01-01T22:14:44.423Z,6.00
2018-01-01T22:17:12.804Z,6.10
2018-01-01T22:19:41.149Z,6.10
2018-01-01T22:22:08.780Z,6.00
2018-01-01T22:24:36.359Z,6.10
2018-01-01T22:27:03.968Z,6.10
2018-01-01T22:29:31.567Z,6.10
2018-01-01T22:31:59.322Z,6.10
2018-01-01T22:34:26.898Z,6.10
2018-01-01T22:36:54.490Z,6.10
2018-01-01T22:39:22.114Z,6.20
2018-01-01T22:41:49.700Z,6.20
2018-01-01T22:44:17.379Z,6.10
2018-01-01T22:46:45.786Z,6.10
2018-01-01T22:49:13.470Z,6.10
2018-01-01T22:51:41.058Z,6.10
2018-01-01T22:54:08.660Z,6.10
2018-01-01T22:56:36.242Z,6.10
2018-01-01T22:59:03.819Z,6.10
2018-01-01T23:01:31.400Z,6.00
2018-01-01T23:03:58.980Z,5.90
2018-01-01T23:06:27.340Z,5.80
2018-01-01T23:08:54.923Z,5.80
2018-01-01T23:11:23.283Z,5.70
2018-01-01T23:13:50.859Z,5.70
2018-01-01T23:16:19.223Z,5.60
2018-01-01T23:18:46.801Z,5.60
2018-01-01T23:21:15.174Z,5.50
2018-01-01T23:23:43.529Z,5.50
2018-01-01T23:26:11.194Z,5.50
2018-01-01T23:28:38.787Z,5.50
2018-01-01T23:31:06.367Z,5.40
2018-01-01T23:33:33.947Z,5.40
2018-01-01T23:36:02.316Z,5.40
2018-01-01T23:38:29.903Z,5.40
2018-01-01T23:40:57.479Z,5.40
2018-01-01T23:43:25.069Z,5.40
2018-01-01T23:45:53.427Z,5.30
2018-01-01T23:48:21.001Z,5.30
2018-01-01T23:50:49.371Z,5.30
2018-01-01T23:53:17.714Z,5.30
2018-01-01T23:55:45.318Z,5.30
2018-01-01T23:58:13.658Z,5.30
